LFKC/CLY METAR and TAF weather

Enter ICAO airport designator
Station Type Date Time Source
LFKC METAR 2020/01/18 15:30 UTC NOAA

LFKC 181530Z AUTO 17006KT 090V230 CAVOK 12/05 Q1022 NOSIG


Station Type Date Time Source
LFKC Decoded METAR 2020/01/18 15:30 UTC NOAA

Calvi, France (LFKC) 42-32N 008-48E 58M
Jan 18, 2020 - 10:30 AM EST / 2020.01.18 1530 UTC
Wind: from the S (170 degrees) at 7 MPH (6 KT) (direction variable):0
Visibility: greater than 7 mile(s):0
Temperature: 53 F (12 C)
Dew Point: 41 F (5 C)
Relative Humidity: 62%
Pressure (altimeter): 30.18 in. Hg (1022 hPa)
ob: LFKC 181530Z AUTO 17006KT 090V230 CAVOK 12/05 Q1022 NOSIG
cycle: 15

Station Type Date Time Source
LFKC TAF 2020/01/18 15:47 UTC NOAA

TAF LFKC 181400Z 1815/1915 22010KT 9999 NSC TX14/1912Z TN05/1903Z
BECMG 1817/1819 16005KT
BECMG 1913/1915 03010KT

Example: see airport list